createdAt,value
2023-02-18T00:01:14.000Z,10.9
2023-02-18T00:02:30.000Z,10.9
2023-02-18T00:03:47.000Z,10.9
2023-02-18T00:05:03.000Z,10.9
2023-02-18T00:06:19.000Z,10.9
2023-02-18T00:07:35.000Z,10.9
2023-02-18T00:08:51.000Z,10.9
2023-02-18T00:10:08.000Z,10.9
2023-02-18T00:11:24.000Z,10.9
2023-02-18T00:12:39.000Z,10.9
2023-02-18T00:13:55.000Z,10.9
2023-02-18T00:15:11.000Z,10.9
2023-02-18T00:16:28.000Z,10.9
2023-02-18T00:17:44.000Z,10.9
2023-02-18T00:19:00.000Z,10.9
2023-02-18T00:20:16.000Z,11
2023-02-18T00:21:32.000Z,11
2023-02-18T00:22:49.000Z,11
2023-02-18T00:24:05.000Z,11
2023-02-18T00:25:21.000Z,11
2023-02-18T00:26:37.000Z,11
2023-02-18T00:27:53.000Z,11
2023-02-18T00:29:09.031Z,10.9
2023-02-18T00:30:25.000Z,10.9
2023-02-18T00:31:41.000Z,10.9
2023-02-18T00:32:57.000Z,11
2023-02-18T00:34:13.000Z,10.9
2023-02-18T00:35:30.000Z,11
2023-02-18T00:36:46.000Z,11
2023-02-18T00:38:02.000Z,11
2023-02-18T00:39:18.000Z,10.9
2023-02-18T00:40:34.000Z,10.9
2023-02-18T00:41:50.990Z,10.9
2023-02-18T00:43:07.000Z,10.9
2023-02-18T00:44:23.000Z,10.9
2023-02-18T00:45:38.000Z,10.9
2023-02-18T00:46:54.000Z,10.9
2023-02-18T00:48:11.000Z,11
2023-02-18T00:49:27.000Z,11
2023-02-18T00:50:43.000Z,11
2023-02-18T00:51:59.000Z,11
2023-02-18T00:53:15.000Z,11
2023-02-18T00:54:32.000Z,11
2023-02-18T00:55:48.000Z,11
2023-02-18T00:57:04.000Z,11
2023-02-18T00:58:20.000Z,11
2023-02-18T00:59:36.000Z,11
2023-02-18T01:00:52.000Z,11
2023-02-18T01:02:08.000Z,11
2023-02-18T01:03:24.000Z,11
2023-02-18T01:04:40.000Z,11
2023-02-18T01:05:56.000Z,11
2023-02-18T01:07:12.000Z,11
2023-02-18T01:08:29.000Z,11
2023-02-18T01:09:45.000Z,11
2023-02-18T01:11:01.000Z,11
2023-02-18T01:12:17.000Z,11
2023-02-18T01:13:33.000Z,11
2023-02-18T01:14:50.000Z,11
2023-02-18T01:16:06.000Z,11.1
2023-02-18T01:17:22.000Z,11.1
2023-02-18T01:18:37.000Z,11.1
2023-02-18T01:19:53.000Z,11.1
2023-02-18T01:21:10.000Z,11.1
2023-02-18T01:22:26.000Z,11.1
2023-02-18T01:23:42.000Z,11.1
2023-02-18T01:24:58.000Z,11.2
2023-02-18T01:26:14.000Z,11.1
2023-02-18T01:27:31.000Z,11.2
2023-02-18T01:28:47.275Z,11.2
2023-02-18T01:30:03.000Z,11.2
2023-02-18T01:31:19.000Z,11.2
2023-02-18T01:32:35.859Z,11.2
2023-02-18T01:33:52.000Z,11.2
2023-02-18T01:35:07.000Z,11.2
2023-02-18T01:36:23.000Z,11.2
2023-02-18T01:37:39.000Z,11.2
2023-02-18T01:38:55.000Z,11.2
2023-02-18T01:40:12.000Z,11.2
2023-02-18T01:41:28.000Z,11.2
2023-02-18T01:42:44.000Z,11.2
2023-02-18T01:44:00.000Z,11.2
2023-02-18T01:45:16.000Z,11.2
2023-02-18T01:46:33.000Z,11.2
2023-02-18T01:47:49.000Z,11.2
2023-02-18T01:49:05.000Z,11.2
2023-02-18T01:50:21.000Z,11.2
2023-02-18T01:51:36.000Z,11.2
2023-02-18T01:52:53.000Z,11.2
2023-02-18T01:54:09.000Z,11.2
2023-02-18T01:55:25.000Z,11.2
2023-02-18T01:56:41.000Z,11.2
2023-02-18T01:57:57.791Z,11.2
2023-02-18T01:59:14.000Z,11.2
2023-02-18T02:00:30.000Z,11.2
2023-02-18T02:01:46.000Z,11.2
2023-02-18T02:03:02.000Z,11.2
2023-02-18T02:04:18.000Z,11.2
2023-02-18T02:05:35.000Z,11.2
2023-02-18T02:06:51.000Z,11.2
2023-02-18T02:08:06.000Z,11.2
2023-02-18T02:09:22.000Z,11.2
2023-02-18T02:10:38.000Z,11.3
2023-02-18T02:11:55.000Z,11.3
2023-02-18T02:13:11.000Z,11.3
2023-02-18T02:14:27.000Z,11.3
2023-02-18T02:15:42.000Z,11.3
2023-02-18T02:16:58.000Z,11.3
2023-02-18T02:18:15.000Z,11.3
2023-02-18T02:19:31.000Z,11.3
2023-02-18T02:20:47.000Z,11.3
2023-02-18T02:22:03.000Z,11.3
2023-02-18T02:23:19.000Z,11.3
2023-02-18T02:24:35.000Z,11.3
2023-02-18T02:25:52.000Z,11.3
2023-02-18T02:27:08.000Z,11.3
2023-02-18T02:28:24.000Z,11.3
2023-02-18T02:29:40.000Z,11.3
2023-02-18T02:30:56.000Z,11.3
2023-02-18T02:32:12.000Z,11.3
2023-02-18T02:33:28.000Z,11.3
2023-02-18T02:34:44.000Z,11.3
2023-02-18T02:36:00.724Z,11.3
2023-02-18T02:37:16.000Z,11.3
2023-02-18T02:38:33.000Z,11.3
2023-02-18T02:39:49.000Z,11.3
2023-02-18T02:41:05.000Z,11.3
2023-02-18T02:42:21.000Z,11.3
2023-02-18T02:43:37.000Z,11.3
2023-02-18T02:44:54.000Z,11.2
2023-02-18T02:46:10.000Z,11.2
2023-02-18T02:47:26.000Z,11.2
2023-02-18T02:48:41.000Z,11.2
2023-02-18T02:49:57.000Z,11.2
2023-02-18T02:51:14.000Z,11.2
2023-02-18T02:52:30.000Z,11.2
2023-02-18T02:53:46.000Z,11.1
2023-02-18T02:55:02.000Z,11.2
2023-02-18T02:56:18.000Z,11.2
2023-02-18T02:57:35.000Z,11.2
2023-02-18T02:58:51.000Z,11.2
2023-02-18T03:00:07.000Z,11.2
2023-02-18T03:01:23.000Z,11.2
2023-02-18T03:02:39.000Z,11.1
2023-02-18T03:03:56.000Z,11.1
2023-02-18T03:05:11.000Z,11.1
2023-02-18T03:06:27.000Z,11.1
2023-02-18T03:07:43.000Z,11.2
2023-02-18T03:08:59.000Z,11.2
2023-02-18T03:10:16.000Z,11.2
2023-02-18T03:11:32.000Z,11.2
2023-02-18T03:12:48.000Z,11.2
2023-02-18T03:14:04.000Z,11.2
2023-02-18T03:15:20.000Z,11.2
2023-02-18T03:16:37.000Z,11.2
2023-02-18T03:17:53.000Z,11.2
2023-02-18T03:19:09.000Z,11.2
2023-02-18T03:20:25.000Z,11.2
2023-02-18T03:21:40.000Z,11.2
2023-02-18T03:22:57.000Z,11.2
2023-02-18T03:24:13.000Z,11.2
2023-02-18T03:25:29.000Z,11.2
2023-02-18T03:26:45.597Z,11.2
2023-02-18T03:28:01.000Z,11.2
2023-02-18T03:29:18.000Z,11.2
2023-02-18T03:30:34.000Z,11.2
2023-02-18T03:31:50.000Z,11.2
2023-02-18T03:33:06.000Z,11.2
2023-02-18T03:34:22.000Z,11.2
2023-02-18T03:35:39.000Z,11.2
2023-02-18T03:36:55.000Z,11.2
2023-02-18T03:38:10.000Z,11.2
2023-02-18T03:39:26.000Z,11.2
2023-02-18T03:40:42.000Z,11.2
2023-02-18T03:41:59.000Z,11.2
2023-02-18T03:43:15.000Z,11.2
2023-02-18T03:44:31.000Z,11.2
2023-02-18T03:45:47.000Z,11.2
2023-02-18T03:47:03.000Z,11.2
2023-02-18T03:48:19.926Z,11.2
2023-02-18T03:49:36.000Z,11.2
2023-02-18T03:50:52.000Z,11.2
2023-02-18T03:52:08.000Z,11.2
2023-02-18T03:53:24.000Z,11.2
2023-02-18T03:54:39.000Z,11.2
2023-02-18T03:55:56.000Z,11.2
2023-02-18T03:57:12.000Z,11.2
2023-02-18T03:58:28.000Z,11.2
2023-02-18T03:59:44.000Z,11.2
2023-02-18T04:01:00.000Z,11.2
2023-02-18T04:02:17.000Z,11.2
2023-02-18T04:03:33.000Z,11.2
2023-02-18T04:04:49.495Z,11.2
2023-02-18T04:06:05.000Z,11.2
2023-02-18T04:07:21.000Z,11.2
2023-02-18T04:08:38.000Z,11.2
2023-02-18T04:09:54.000Z,11.2
2023-02-18T04:11:09.000Z,11.3
2023-02-18T04:12:25.000Z,11.3
2023-02-18T04:13:41.000Z,11.2
2023-02-18T04:14:58.000Z,11.2
2023-02-18T04:16:14.000Z,11.2
2023-02-18T04:17:30.454Z,11.3
2023-02-18T04:18:46.000Z,11.2
2023-02-18T04:20:02.000Z,11.2
2023-02-18T04:21:19.000Z,11.2
2023-02-18T04:22:35.000Z,11.2
2023-02-18T04:23:51.000Z,11.3
2023-02-18T04:25:07.000Z,11.3
2023-02-18T04:26:23.000Z,11.3
2023-02-18T04:27:39.000Z,11.3
2023-02-18T04:28:55.000Z,11.3
2023-02-18T04:30:11.440Z,11.3
2023-02-18T04:31:27.000Z,11.3
2023-02-18T04:32:43.000Z,11.3
2023-02-18T04:34:00.000Z,11.3
2023-02-18T04:35:16.000Z,11.3
2023-02-18T04:36:32.000Z,11.3
2023-02-18T04:37:48.000Z,11.3
2023-02-18T04:39:04.000Z,11.3
2023-02-18T04:40:21.000Z,11.3
2023-02-18T04:41:37.000Z,11.3
2023-02-18T04:42:53.000Z,11.3
2023-02-18T04:44:08.000Z,11.3
2023-02-18T04:45:24.000Z,11.3
2023-02-18T04:46:41.000Z,11.3
2023-02-18T04:47:57.000Z,11.3
2023-02-18T04:49:13.000Z,11.3
2023-02-18T04:50:29.584Z,11.3
2023-02-18T04:51:45.000Z,11.2
2023-02-18T04:53:02.000Z,11.2
2023-02-18T04:54:18.168Z,11.3
2023-02-18T04:55:34.000Z,11.3
2023-02-18T04:56:50.000Z,11.3
2023-02-18T04:58:06.000Z,11.2
2023-02-18T04:59:23.000Z,11.2
2023-02-18T05:00:38.000Z,11.3
2023-02-18T05:01:54.000Z,11.3
2023-02-18T05:03:10.000Z,11.2
2023-02-18T05:04:26.000Z,11.2
2023-02-18T05:05:43.000Z,11.3
2023-02-18T05:06:59.000Z,11.3
2023-02-18T05:08:15.000Z,11.3
2023-02-18T05:09:31.000Z,11.3
2023-02-18T05:10:47.000Z,11.3
2023-02-18T05:12:03.000Z,11.3
2023-02-18T05:13:20.000Z,11.4
2023-02-18T05:14:36.000Z,11.4
2023-02-18T05:15:52.000Z,11.4
2023-02-18T05:17:07.000Z,11.3
2023-02-18T05:18:23.000Z,11.3
2023-02-18T05:19:40.000Z,11.3
2023-02-18T05:20:56.000Z,11.3
2023-02-18T05:22:12.000Z,11.3
2023-02-18T05:23:28.000Z,11.3
2023-02-18T05:24:44.000Z,11.3
2023-02-18T05:26:01.000Z,11.3
2023-02-18T05:27:17.000Z,11.3
2023-02-18T05:28:33.000Z,11.3
2023-02-18T05:29:49.000Z,11.3
2023-02-18T05:31:05.000Z,11.3
2023-02-18T05:32:22.000Z,11.3
2023-02-18T05:33:37.280Z,11.3
2023-02-18T05:34:53.000Z,11.3
2023-02-18T05:36:09.000Z,11.3
2023-02-18T05:37:25.000Z,11.3
2023-02-18T05:38:42.000Z,11.3
2023-02-18T05:39:58.000Z,11.3
2023-02-18T05:41:14.000Z,11.3
2023-02-18T05:42:30.000Z,11.2
2023-02-18T05:43:46.000Z,11.2
2023-02-18T05:45:03.000Z,11.2
2023-02-18T05:46:19.000Z,11.2
2023-02-18T05:47:35.000Z,11.2
2023-02-18T05:48:51.627Z,11.2
2023-02-18T05:50:06.000Z,11.2
2023-02-18T05:51:23.000Z,11.2
2023-02-18T05:52:39.000Z,11.2
2023-02-18T05:53:55.000Z,11.2
2023-02-18T05:55:11.000Z,11.2
2023-02-18T05:56:27.000Z,11.2
2023-02-18T05:57:44.000Z,11.2
2023-02-18T05:59:00.000Z,11.2
2023-02-18T06:00:16.000Z,11.2
2023-02-18T06:01:32.000Z,11.2
2023-02-18T06:02:48.000Z,11.2
2023-02-18T06:04:05.000Z,11.2
2023-02-18T06:05:21.000Z,11.2
2023-02-18T06:06:36.000Z,11.2
2023-02-18T06:07:52.000Z,11.1
2023-02-18T06:09:08.000Z,11.1
2023-02-18T06:10:25.000Z,11.2
2023-02-18T06:11:41.183Z,11.2
2023-02-18T06:12:57.000Z,11.2
2023-02-18T06:14:13.000Z,11.2
2023-02-18T06:15:29.000Z,11.2
2023-02-18T06:16:46.000Z,11.2
2023-02-18T06:18:02.000Z,11.2
2023-02-18T06:19:18.000Z,11.2
2023-02-18T06:20:34.000Z,11.2
2023-02-18T06:21:50.000Z,11.2
2023-02-18T06:23:06.000Z,11.2
2023-02-18T06:24:22.000Z,11.2
2023-02-18T06:25:38.000Z,11.2
2023-02-18T06:26:54.000Z,11.2
2023-02-18T06:28:10.000Z,11.2
2023-02-18T06:29:26.000Z,11.2
2023-02-18T06:30:42.000Z,11.2
2023-02-18T06:31:58.000Z,11.2
2023-02-18T06:33:14.000Z,11.2
2023-02-18T06:34:30.000Z,11.2
2023-02-18T06:35:46.000Z,11.2
2023-02-18T06:37:03.000Z,11.2
2023-02-18T06:38:19.000Z,11.2
2023-02-18T06:39:35.000Z,11.2
2023-02-18T06:40:51.000Z,11.2
2023-02-18T06:42:07.000Z,11.2
2023-02-18T06:43:24.000Z,11.2
2023-02-18T06:44:40.000Z,11.2
2023-02-18T06:45:56.000Z,11.2
2023-02-18T06:47:11.000Z,11.2
2023-02-18T06:48:27.000Z,11.2
2023-02-18T06:49:44.000Z,11.2
2023-02-18T06:51:00.000Z,11.2
2023-02-18T06:52:16.000Z,11.2
2023-02-18T06:53:32.000Z,11.2
2023-02-18T06:54:48.000Z,11.2
2023-02-18T06:56:05.000Z,11.2
2023-02-18T06:57:21.000Z,11.2
2023-02-18T06:58:37.000Z,11.3
2023-02-18T06:59:53.000Z,11.3
2023-02-18T07:01:09.000Z,11.3
2023-02-18T07:02:26.000Z,11.2
2023-02-18T07:03:41.000Z,11.3
2023-02-18T07:04:57.000Z,11.3
2023-02-18T07:06:13.000Z,11.3
2023-02-18T07:07:29.000Z,11.3
2023-02-18T07:08:46.000Z,11.3
2023-02-18T07:10:02.000Z,11.3
2023-02-18T07:11:18.000Z,11.3
2023-02-18T07:12:34.000Z,11.3
2023-02-18T07:13:50.000Z,11.3
2023-02-18T07:15:06.933Z,11.3
2023-02-18T07:16:23.000Z,11.3
2023-02-18T07:17:39.000Z,11.3
2023-02-18T07:18:55.000Z,11.3
2023-02-18T07:20:10.000Z,11.3
2023-02-18T07:21:26.000Z,11.3
2023-02-18T07:22:43.000Z,11.3
2023-02-18T07:23:59.000Z,11.3
2023-02-18T07:25:15.000Z,11.3
2023-02-18T07:26:31.000Z,11.3
2023-02-18T07:27:47.883Z,11.3
2023-02-18T07:29:04.000Z,11.3
2023-02-18T07:30:20.000Z,11.3
2023-02-18T07:31:36.000Z,11.3
2023-02-18T07:32:52.000Z,11.4
2023-02-18T07:34:08.000Z,11.4
2023-02-18T07:35:25.000Z,11.4
2023-02-18T07:36:40.000Z,11.4
2023-02-18T07:37:56.000Z,11.4
2023-02-18T07:39:12.000Z,11.4
2023-02-18T07:40:28.822Z,11.4
2023-02-18T07:41:45.000Z,11.4
2023-02-18T07:43:01.000Z,11.4
2023-02-18T07:44:17.000Z,11.4
2023-02-18T07:45:33.000Z,11.4
2023-02-18T07:46:49.000Z,11.4
2023-02-18T07:48:06.000Z,11.4
2023-02-18T07:49:22.181Z,11.4
2023-02-18T07:50:38.000Z,11.4
2023-02-18T07:51:54.000Z,11.4
2023-02-18T07:53:09.770Z,11.4
2023-02-18T07:54:26.000Z,11.4
2023-02-18T07:55:42.000Z,11.4
2023-02-18T07:56:58.000Z,11.4
2023-02-18T07:58:14.000Z,11.4
2023-02-18T07:59:30.731Z,11.4
2023-02-18T08:00:47.000Z,11.4
2023-02-18T08:02:03.000Z,11.4
2023-02-18T08:03:19.000Z,11.4
2023-02-18T08:04:35.000Z,11.4
2023-02-18T08:05:51.000Z,11.4
2023-02-18T08:07:07.000Z,11.4
2023-02-18T08:08:24.000Z,11.4
2023-02-18T08:09:39.309Z,11.4
2023-02-18T08:10:55.000Z,11.4
2023-02-18T08:12:11.000Z,11.4
2023-02-18T08:13:27.000Z,11.4
2023-02-18T08:14:44.000Z,11.4
2023-02-18T08:16:00.000Z,11.4
2023-02-18T08:17:16.000Z,11.4
2023-02-18T08:18:32.663Z,11.4
2023-02-18T08:19:48.000Z,11.4
2023-02-18T08:21:05.000Z,11.4
2023-02-18T08:22:21.000Z,11.4
2023-02-18T08:23:37.000Z,11.4
2023-02-18T08:24:53.000Z,11.4
2023-02-18T08:26:08.000Z,11.4
2023-02-18T08:27:25.000Z,11.4
2023-02-18T08:28:41.000Z,11.4
2023-02-18T08:29:57.000Z,11.4
2023-02-18T08:31:13.000Z,11.4
2023-02-18T08:32:29.000Z,11.4
2023-02-18T08:33:46.000Z,11.4
2023-02-18T08:35:02.000Z,11.3
2023-02-18T08:36:18.375Z,11.3
2023-02-18T08:37:34.000Z,11.3
2023-02-18T08:38:50.000Z,11.3
2023-02-18T08:40:07.000Z,11.3
2023-02-18T08:41:23.149Z,11.4
2023-02-18T08:42:38.000Z,11.4
2023-02-18T08:43:54.000Z,11.3
2023-02-18T08:45:10.000Z,11.3
2023-02-18T08:46:27.000Z,11.3
2023-02-18T08:47:43.000Z,11.3
2023-02-18T08:48:59.000Z,11.3
2023-02-18T08:50:15.000Z,11.3
2023-02-18T08:51:31.000Z,11.3
2023-02-18T08:52:47.000Z,11.3
2023-02-18T08:54:04.000Z,11.3
2023-02-18T08:55:20.000Z,11.3
2023-02-18T08:56:36.000Z,11.3
2023-02-18T08:57:52.000Z,11.3
2023-02-18T08:59:07.000Z,11.3
2023-02-18T09:00:24.000Z,11.3
2023-02-18T09:01:40.000Z,11.3
2023-02-18T09:02:56.000Z,11.3
2023-02-18T09:04:12.000Z,11.3
2023-02-18T09:05:28.000Z,11.3
2023-02-18T09:06:45.000Z,11.3
2023-02-18T09:08:01.000Z,11.3
2023-02-18T09:09:17.427Z,11.3
2023-02-18T09:10:33.000Z,11.3
2023-02-18T09:11:49.000Z,11.4
2023-02-18T09:13:06.000Z,11.4
2023-02-18T09:14:22.000Z,11.4
2023-02-18T09:15:37.000Z,11.4
2023-02-18T09:16:53.000Z,11.3
2023-02-18T09:18:09.000Z,11.3
2023-02-18T09:19:26.000Z,11.3
2023-02-18T09:20:42.185Z,11.3
2023-02-18T09:21:58.000Z,11.2
2023-02-18T09:23:14.000Z,11.2
2023-02-18T09:24:30.000Z,11.3
2023-02-18T09:25:47.000Z,11.3
2023-02-18T09:27:03.000Z,11.2
2023-02-18T09:28:19.000Z,11.2
2023-02-18T09:29:35.000Z,11.2
2023-02-18T09:30:51.000Z,11.3
2023-02-18T09:32:07.000Z,11.3
2023-02-18T09:33:23.000Z,11.3
2023-02-18T09:34:39.335Z,11.3
2023-02-18T09:35:55.000Z,11.2
2023-02-18T09:37:11.000Z,11.2
2023-02-18T09:38:27.000Z,11.2
2023-02-18T09:39:44.000Z,11.2
2023-02-18T09:41:00.000Z,11.2
2023-02-18T09:42:16.000Z,11.3
2023-02-18T09:43:32.000Z,11.3
2023-02-18T09:44:48.000Z,11.3
2023-02-18T09:46:05.000Z,11.3
2023-02-18T09:47:21.271Z,11.3
2023-02-18T09:48:36.000Z,11.2
2023-02-18T09:49:52.000Z,11.2
2023-02-18T09:51:08.000Z,11.2
2023-02-18T09:52:25.000Z,11.2
2023-02-18T09:53:41.000Z,11.3
2023-02-18T09:54:57.000Z,11.3
2023-02-18T09:56:13.000Z,11.3
2023-02-18T09:57:29.000Z,11.2
2023-02-18T09:58:46.000Z,11.2
2023-02-18T10:00:02.000Z,11.2
2023-02-18T10:01:18.000Z,11.2
2023-02-18T10:02:34.000Z,11.2
2023-02-18T10:03:50.000Z,11.3
2023-02-18T10:05:06.000Z,11.3
2023-02-18T10:06:22.000Z,11.3
2023-02-18T10:07:38.000Z,11.3
2023-02-18T10:08:54.000Z,11.3
2023-02-18T10:10:10.000Z,11.3
2023-02-18T10:11:27.000Z,11.3
2023-02-18T10:12:43.000Z,11.2
2023-02-18T10:13:59.000Z,11.2
2023-02-18T10:15:15.000Z,11.2
2023-02-18T10:16:31.000Z,11.2
2023-02-18T10:17:48.000Z,11.2
2023-02-18T10:19:04.000Z,11.1
2023-02-18T10:20:20.000Z,11.1
2023-02-18T10:21:35.000Z,11
2023-02-18T10:22:51.000Z,11
2023-02-18T10:24:08.000Z,10.9
2023-02-18T10:25:24.122Z,10.9
2023-02-18T10:26:40.000Z,10.9
2023-02-18T10:27:56.000Z,10.9
2023-02-18T10:29:12.000Z,10.9
2023-02-18T10:30:28.000Z,10.9
2023-02-18T10:31:45.000Z,10.9
2023-02-18T10:33:01.000Z,10.9
2023-02-18T10:34:17.000Z,10.9
2023-02-18T10:35:33.000Z,10.9
2023-02-18T10:36:49.000Z,10.8
2023-02-18T10:38:05.000Z,10.9
2023-02-18T10:39:21.000Z,10.9
2023-02-18T10:40:37.000Z,10.9
2023-02-18T10:41:53.000Z,10.9
2023-02-18T10:43:09.000Z,10.9
2023-02-18T10:44:26.000Z,10.9
2023-02-18T10:45:41.000Z,10.8
2023-02-18T10:46:57.000Z,10.9
2023-02-18T10:48:13.000Z,10.9
2023-02-18T10:49:29.820Z,10.9
2023-02-18T10:50:46.020Z,10.9
2023-02-18T10:52:02.000Z,10.9
2023-02-18T10:53:18.000Z,10.8
2023-02-18T10:54:34.000Z,10.8
2023-02-18T10:55:50.000Z,10.9
2023-02-18T10:57:07.000Z,10.9
2023-02-18T10:58:23.000Z,10.9
2023-02-18T10:59:39.000Z,10.9
2023-02-18T11:00:55.000Z,10.9
2023-02-18T11:02:10.000Z,10.9
2023-02-18T11:03:27.000Z,10.9
2023-02-18T11:04:43.000Z,11
2023-02-18T11:05:59.000Z,11
2023-02-18T11:07:15.000Z,11
2023-02-18T11:08:31.000Z,11
2023-02-18T11:09:48.000Z,11.1
2023-02-18T11:11:04.000Z,11.1
2023-02-18T11:12:20.000Z,11
2023-02-18T11:13:36.000Z,11
2023-02-18T11:14:52.000Z,10.9
2023-02-18T11:16:08.897Z,10.9
2023-02-18T11:17:25.000Z,10.8
2023-02-18T11:18:40.000Z,10.8
2023-02-18T11:19:56.000Z,10.8
2023-02-18T11:21:12.000Z,10.8
2023-02-18T11:22:28.000Z,10.9
2023-02-18T11:23:45.000Z,10.9
2023-02-18T11:25:01.000Z,10.9
2023-02-18T11:26:17.000Z,10.9
2023-02-18T11:27:33.000Z,10.9
2023-02-18T11:28:49.861Z,10.9
2023-02-18T11:30:06.000Z,10.9
2023-02-18T11:31:22.000Z,10.9
2023-02-18T11:32:38.000Z,10.9
2023-02-18T11:33:54.000Z,10.9
2023-02-18T11:35:09.000Z,10.9
2023-02-18T11:36:26.000Z,10.9
2023-02-18T11:37:42.000Z,10.9
2023-02-18T11:38:58.000Z,10.9
2023-02-18T11:40:14.000Z,10.9
2023-02-18T11:41:30.000Z,11
2023-02-18T11:42:47.000Z,11
2023-02-18T11:44:03.000Z,11
2023-02-18T11:45:19.000Z,11
2023-02-18T11:46:35.000Z,11
2023-02-18T11:47:51.000Z,11
2023-02-18T11:49:08.000Z,11
2023-02-18T11:50:24.000Z,11.1
2023-02-18T11:51:39.000Z,11.1
2023-02-18T11:52:55.000Z,11.1
2023-02-18T11:54:11.745Z,11.1
2023-02-18T11:55:28.000Z,11.1
2023-02-18T11:56:44.000Z,11.1
2023-02-18T11:58:00.000Z,11
2023-02-18T11:59:16.000Z,11
2023-02-18T12:00:32.000Z,11
2023-02-18T12:01:48.000Z,10.9
2023-02-18T12:03:05.000Z,11
2023-02-18T12:04:21.000Z,11
2023-02-18T12:05:37.000Z,10.9
2023-02-18T12:06:53.681Z,10.9
2023-02-18T12:08:08.000Z,10.9
2023-02-18T12:09:25.000Z,10.9
2023-02-18T12:10:41.000Z,10.8
2023-02-18T12:11:57.000Z,10.9
2023-02-18T12:13:13.000Z,10.8
2023-02-18T12:14:29.000Z,10.8
2023-02-18T12:15:46.000Z,10.8
2023-02-18T12:17:02.000Z,10.8
2023-02-18T12:18:18.000Z,10.9
2023-02-18T12:19:34.000Z,10.9
2023-02-18T12:20:50.000Z,10.9
2023-02-18T12:22:07.000Z,11
2023-02-18T12:23:23.000Z,11
2023-02-18T12:24:38.000Z,11
2023-02-18T12:25:54.000Z,11.1
2023-02-18T12:27:10.000Z,11.1
2023-02-18T12:28:27.000Z,11.1
2023-02-18T12:29:43.000Z,11.1
2023-02-18T12:30:59.000Z,11.2
2023-02-18T12:32:15.583Z,11.1
2023-02-18T12:33:31.000Z,11.2
2023-02-18T12:34:48.000Z,11.2
2023-02-18T12:36:04.000Z,11.1
2023-02-18T12:37:20.000Z,11.1
2023-02-18T12:38:36.000Z,11.1
2023-02-18T12:39:52.000Z,11.1
2023-02-18T12:41:08.000Z,11.1
2023-02-18T12:42:24.000Z,11.1
2023-02-18T12:43:40.000Z,11.1
2023-02-18T12:44:56.000Z,11
2023-02-18T12:46:12.000Z,11
2023-02-18T12:47:29.000Z,11
2023-02-18T12:48:45.000Z,11
2023-02-18T12:50:01.000Z,11
2023-02-18T12:51:17.000Z,11
2023-02-18T12:52:33.000Z,11
2023-02-18T12:53:49.000Z,11
2023-02-18T12:55:06.000Z,11
2023-02-18T12:56:22.000Z,11
2023-02-18T12:57:37.000Z,11
2023-02-18T12:58:53.000Z,11
2023-02-18T13:00:09.000Z,11
2023-02-18T13:01:26.000Z,11
2023-02-18T13:02:42.000Z,11.1
2023-02-18T13:03:58.000Z,11
2023-02-18T13:05:14.000Z,11.1
2023-02-18T13:06:30.000Z,11.1
2023-02-18T13:07:47.000Z,11.1
2023-02-18T13:09:03.000Z,11.1
2023-02-18T13:10:19.000Z,11.1
2023-02-18T13:11:35.000Z,11.1
2023-02-18T13:12:51.000Z,11.2
2023-02-18T13:14:07.000Z,11.2
2023-02-18T13:15:23.000Z,11.2
2023-02-18T13:16:39.000Z,11.3
2023-02-18T13:17:55.000Z,11.3
2023-02-18T13:19:11.000Z,11.3
2023-02-18T13:20:28.000Z,11.3
2023-02-18T13:21:44.000Z,11.3
2023-02-18T13:23:00.371Z,11.3
2023-02-18T13:24:16.000Z,11.3
2023-02-18T13:25:32.000Z,11.4
2023-02-18T13:26:49.000Z,11.3
2023-02-18T13:28:05.000Z,11.2
2023-02-18T13:29:21.000Z,11.3
2023-02-18T13:30:36.000Z,11.3
2023-02-18T13:31:52.000Z,11.2
2023-02-18T13:33:09.000Z,11.2
2023-02-18T13:34:25.000Z,11.2
2023-02-18T13:35:41.309Z,11.2
2023-02-18T13:36:57.000Z,11.2
2023-02-18T13:38:13.000Z,11.2
2023-02-18T13:39:29.000Z,11.3
2023-02-18T13:40:46.000Z,11.3
2023-02-18T13:42:02.000Z,11.4
2023-02-18T13:43:18.000Z,11.4
2023-02-18T13:44:34.000Z,11.5
2023-02-18T13:45:50.954Z,11.6
2023-02-18T13:47:06.061Z,11.6
2023-02-18T13:48:22.000Z,11.5
2023-02-18T13:49:38.000Z,11.5
2023-02-18T13:50:54.000Z,11.5
2023-02-18T13:52:10.000Z,11.5
2023-02-18T13:53:27.000Z,11.5
2023-02-18T13:54:43.000Z,11.5
2023-02-18T13:55:59.000Z,11.5
2023-02-18T13:57:15.000Z,11.5
2023-02-18T13:58:31.000Z,11.6
2023-02-18T13:59:48.000Z,11.6
2023-02-18T14:01:04.270Z,11.6
2023-02-18T14:02:20.000Z,11.6
2023-02-18T14:03:35.000Z,11.6
2023-02-18T14:04:51.000Z,11.6
2023-02-18T14:06:08.000Z,11.5
2023-02-18T14:07:24.000Z,11.5
2023-02-18T14:08:40.000Z,11.5
2023-02-18T14:09:56.000Z,11.5
2023-02-18T14:11:12.000Z,11.5
2023-02-18T14:12:29.000Z,11.6
2023-02-18T14:13:45.229Z,11.5
2023-02-18T14:15:01.000Z,11.5
2023-02-18T14:16:17.000Z,11.5
2023-02-18T14:17:33.000Z,11.5
2023-02-18T14:18:50.000Z,11.6
2023-02-18T14:20:05.000Z,11.6
2023-02-18T14:21:21.000Z,11.6
2023-02-18T14:22:37.000Z,11.5
2023-02-18T14:23:53.000Z,11.5
2023-02-18T14:25:09.000Z,11.5
2023-02-18T14:26:26.000Z,11.5
2023-02-18T14:27:42.000Z,11.6
2023-02-18T14:28:58.000Z,11.6
2023-02-18T14:30:14.000Z,11.6
2023-02-18T14:31:30.000Z,11.6
2023-02-18T14:32:47.000Z,11.6
2023-02-18T14:34:03.000Z,11.6
2023-02-18T14:35:19.000Z,11.6
2023-02-18T14:36:34.000Z,11.5
2023-02-18T14:37:50.000Z,11.5
2023-02-18T14:39:07.124Z,11.5
2023-02-18T14:40:23.000Z,11.6
2023-02-18T14:41:39.000Z,11.6
2023-02-18T14:42:55.000Z,11.6
2023-02-18T14:44:11.000Z,11.6
2023-02-18T14:45:28.000Z,11.6
2023-02-18T14:46:44.000Z,11.7
2023-02-18T14:48:00.000Z,11.6
2023-02-18T14:49:16.000Z,11.6
2023-02-18T14:50:32.000Z,11.7
2023-02-18T14:51:49.057Z,11.7
2023-02-18T14:53:04.000Z,11.7
2023-02-18T14:54:20.000Z,11.7
2023-02-18T14:55:36.000Z,11.7
2023-02-18T14:56:52.000Z,11.7
2023-02-18T14:58:09.000Z,11.7
2023-02-18T14:59:25.000Z,11.6
2023-02-18T15:00:40.000Z,11.6
2023-02-18T15:01:56.000Z,11.6
2023-02-18T15:03:12.000Z,11.6
2023-02-18T15:04:29.000Z,11.6
2023-02-18T15:05:45.000Z,11.6
2023-02-18T15:07:01.000Z,11.6
2023-02-18T15:08:17.000Z,11.6
2023-02-18T15:09:33.000Z,11.6
2023-02-18T15:10:50.000Z,11.6
2023-02-18T15:12:06.000Z,11.7
2023-02-18T15:13:22.000Z,11.7
2023-02-18T15:14:38.000Z,11.7
2023-02-18T15:15:54.000Z,11.6
2023-02-18T15:17:09.000Z,11.6
2023-02-18T15:18:26.000Z,11.6
2023-02-18T15:19:42.000Z,11.6
2023-02-18T15:20:58.000Z,11.6
2023-02-18T15:22:14.000Z,11.6
2023-02-18T15:23:30.000Z,11.6
2023-02-18T15:24:47.000Z,11.6
2023-02-18T15:26:03.000Z,11.7
2023-02-18T15:27:19.000Z,11.7
2023-02-18T15:28:35.000Z,11.7
2023-02-18T15:29:51.918Z,11.7
2023-02-18T15:31:08.000Z,11.7
2023-02-18T15:32:24.000Z,11.7
2023-02-18T15:33:39.000Z,11.7
2023-02-18T15:34:55.000Z,11.7
2023-02-18T15:36:11.000Z,11.7
2023-02-18T15:37:28.000Z,11.7
2023-02-18T15:38:44.000Z,11.7
2023-02-18T15:40:00.000Z,11.7
2023-02-18T15:41:16.000Z,11.7
2023-02-18T15:42:32.000Z,11.7
2023-02-18T15:43:49.000Z,11.7
2023-02-18T15:45:05.000Z,11.7
2023-02-18T15:46:21.000Z,11.7
2023-02-18T15:47:37.000Z,11.7
2023-02-18T15:48:53.000Z,11.7
2023-02-18T15:50:09.000Z,11.7
2023-02-18T15:51:25.000Z,11.7
2023-02-18T15:52:41.000Z,11.7
2023-02-18T15:53:57.000Z,11.7
2023-02-18T15:55:13.000Z,11.7
2023-02-18T15:56:30.000Z,11.7
2023-02-18T15:57:46.000Z,11.7
2023-02-18T15:59:02.000Z,11.7
2023-02-18T16:00:18.000Z,11.7
2023-02-18T16:01:34.000Z,11.7
2023-02-18T16:02:51.000Z,11.7
2023-02-18T16:04:07.000Z,11.7
2023-02-18T16:05:23.000Z,11.7
2023-02-18T16:06:38.000Z,11.7
2023-02-18T16:07:54.783Z,11.7
2023-02-18T16:09:11.000Z,11.7
2023-02-18T16:10:27.000Z,11.7
2023-02-18T16:11:43.000Z,11.7
2023-02-18T16:12:59.000Z,11.7
2023-02-18T16:14:15.000Z,11.7
2023-02-18T16:15:31.000Z,11.7
2023-02-18T16:16:48.000Z,11.7
2023-02-18T16:18:04.000Z,11.7
2023-02-18T16:19:20.000Z,11.7
2023-02-18T16:20:36.739Z,11.6
2023-02-18T16:21:52.000Z,11.6
2023-02-18T16:23:08.000Z,11.6
2023-02-18T16:24:24.000Z,11.7
2023-02-18T16:25:40.000Z,11.6
2023-02-18T16:26:56.000Z,11.6
2023-02-18T16:28:12.925Z,11.6
2023-02-18T16:29:29.000Z,11.7
2023-02-18T16:30:45.000Z,11.7
2023-02-18T16:32:01.000Z,11.7
2023-02-18T16:33:17.706Z,11.6
2023-02-18T16:34:33.000Z,11.6
2023-02-18T16:35:50.000Z,11.6
2023-02-18T16:37:06.000Z,11.6
2023-02-18T16:38:22.000Z,11.6
2023-02-18T16:39:37.000Z,11.6
2023-02-18T16:40:53.000Z,11.6
2023-02-18T16:42:10.000Z,11.6
2023-02-18T16:43:26.000Z,11.6
2023-02-18T16:44:42.000Z,11.6
2023-02-18T16:45:58.000Z,11.6
2023-02-18T16:47:14.000Z,11.6
2023-02-18T16:48:31.000Z,11.6
2023-02-18T16:49:47.000Z,11.6
2023-02-18T16:51:03.000Z,11.6
2023-02-18T16:52:19.000Z,11.5
2023-02-18T16:53:35.000Z,11.5
2023-02-18T16:54:52.000Z,11.5
2023-02-18T16:56:07.000Z,11.5
2023-02-18T16:57:23.000Z,11.5
2023-02-18T16:58:39.649Z,11.5
2023-02-18T16:59:55.000Z,11.5